Platzwetter / Webcam

  • Aktuelles Bild
  • Verlauf
  • Verlauf
  • Verlauf
  • Verlauf
  • Verlauf
  • Verlauf
  • Verlauf
  • Verlauf
  • Verlauf
  • Verlauf
  • Verlauf
  • Verlauf
  • Verlauf
  • Verlauf
  • Verlauf
  • Verlauf
  • Verlauf

Flugwetter Linz

[Quelle: ADDS]
METAR
LOWL 220350Z AUTO 23007KT 9999 FEW018 BKN030 08/07 Q1014 =
TAF
AMD LOWL 220248Z 2202/2224 26010KT 9999 FEW020 BKN050 TX13/2212Z TN07/2203Z TEMPO 2202/2210 6000 RA BKN009 TEMPO 2210/2224 27015G25KT =

Flugwetter Salzburg

[Quelle: ADDS]
METAR
LOWS 220350Z AUTO 15008KT 9999 FEW034 SCT040 BKN050 06/05 Q1016 =
TAF
LOWS 212315Z 2200/2224 27007KT 9999 FEW030 BKN050 TX13/2213Z TN07/2206Z TEMPO 2200/2206 -SHRA SCT010 BKN025 BECMG 2203/2206 15006KT BECMG 2208/2211 25007KT SCT050 BKN100 TEMPO 2214/2217 -RA BKN050 =

Fliegen lernen

Die Fliegerschule der WMW...

Termine & Events

Aktuelles & News

+++ Aktuelle Spritpreise (15.02.2017): | Jet A-1 € 1,316 | Super Plus 98 ETBE € 1,370 | Avgas 100LL € 1,944 | +++